sensor_id;sensor_type;location;lat;lon;timestamp;temperature;humidity
52867;DHT22;38739;53.324;6.862;2022-09-03T00:01:07;17.00;86.10
52867;DHT22;38739;53.324;6.862;2022-09-03T00:03:51;17.00;86.40
52867;DHT22;38739;53.324;6.862;2022-09-03T00:06:25;17.00;86.60
52867;DHT22;38739;53.324;6.862;2022-09-03T00:09:13;17.00;86.50
52867;DHT22;38739;53.324;6.862;2022-09-03T00:14:27;16.90;86.90
52867;DHT22;38739;53.324;6.862;2022-09-03T00:17:03;16.90;86.80
52867;DHT22;38739;53.324;6.862;2022-09-03T00:19:32;16.90;87.40
52867;DHT22;38739;53.324;6.862;2022-09-03T00:22:07;16.90;86.70
52867;DHT22;38739;53.324;6.862;2022-09-03T00:24:38;16.90;86.80
52867;DHT22;38739;53.324;6.862;2022-09-03T00:27:12;16.90;86.80
52867;DHT22;38739;53.324;6.862;2022-09-03T00:29:51;16.90;87.10
52867;DHT22;38739;53.324;6.862;2022-09-03T00:32:41;16.80;87.20
52867;DHT22;38739;53.324;6.862;2022-09-03T00:35:16;16.80;87.40
52867;DHT22;38739;53.324;6.862;2022-09-03T00:37:45;16.80;87.50
52867;DHT22;38739;53.324;6.862;2022-09-03T00:40:23;16.80;87.60
52867;DHT22;38739;53.324;6.862;2022-09-03T00:46:09;16.70;87.90
52867;DHT22;38739;53.324;6.862;2022-09-03T00:49:31;16.70;88.70
52867;DHT22;38739;53.324;6.862;2022-09-03T00:55:12;16.70;88.60
52867;DHT22;38739;53.324;6.862;2022-09-03T01:00:34;16.60;89.30
52867;DHT22;38739;53.324;6.862;2022-09-03T01:03:32;16.60;89.30
52867;DHT22;38739;53.324;6.862;2022-09-03T01:17:35;16.50;90.30
52867;DHT22;38739;53.324;6.862;2022-09-03T01:29:31;16.40;90.70
52867;DHT22;38739;53.324;6.862;2022-09-03T01:32:11;16.40;91.00
52867;DHT22;38739;53.324;6.862;2022-09-03T01:35:03;16.30;90.80
52867;DHT22;38739;53.324;6.862;2022-09-03T01:37:58;16.30;90.80
52867;DHT22;38739;53.324;6.862;2022-09-03T01:43:18;16.30;91.20
52867;DHT22;38739;53.324;6.862;2022-09-03T01:45:55;16.30;91.20
52867;DHT22;38739;53.324;6.862;2022-09-03T02:00:02;16.10;92.10
52867;DHT22;38739;53.324;6.862;2022-09-03T02:02:29;16.10;92.10
52867;DHT22;38739;53.324;6.862;2022-09-03T02:07:22;16.10;92.20
52867;DHT22;38739;53.324;6.862;2022-09-03T02:09:49;16.10;92.50
52867;DHT22;38739;53.324;6.862;2022-09-03T02:12:16;16.10;92.40
52867;DHT22;38739;53.324;6.862;2022-09-03T02:14:43;16.10;92.40
52867;DHT22;38739;53.324;6.862;2022-09-03T02:17:09;16.10;92.90
52867;DHT22;38739;53.324;6.862;2022-09-03T02:19:37;16.00;92.70
52867;DHT22;38739;53.324;6.862;2022-09-03T02:22:04;16.00;92.80
52867;DHT22;38739;53.324;6.862;2022-09-03T02:24:33;16.00;92.90
52867;DHT22;38739;53.324;6.862;2022-09-03T02:26:58;16.00;92.90
52867;DHT22;38739;53.324;6.862;2022-09-03T02:29:25;16.00;93.10
52867;DHT22;38739;53.324;6.862;2022-09-03T02:31:51;16.00;93.30
52867;DHT22;38739;53.324;6.862;2022-09-03T02:34:16;15.90;93.40
52867;DHT22;38739;53.324;6.862;2022-09-03T02:36:44;15.90;93.50
52867;DHT22;38739;53.324;6.862;2022-09-03T02:39:12;15.90;93.60
52867;DHT22;38739;53.324;6.862;2022-09-03T02:41:38;15.90;93.70
52867;DHT22;38739;53.324;6.862;2022-09-03T02:46:45;15.80;94.10
52867;DHT22;38739;53.324;6.862;2022-09-03T02:49:13;15.80;94.30
52867;DHT22;38739;53.324;6.862;2022-09-03T02:51:40;15.80;94.40
52867;DHT22;38739;53.324;6.862;2022-09-03T02:54:07;15.80;94.60
52867;DHT22;38739;53.324;6.862;2022-09-03T02:56:33;15.80;94.90
52867;DHT22;38739;53.324;6.862;2022-09-03T02:59:00;15.70;95.10
52867;DHT22;38739;53.324;6.862;2022-09-03T03:01:26;15.70;95.30
52867;DHT22;38739;53.324;6.862;2022-09-03T03:03:52;15.70;95.50
52867;DHT22;38739;53.324;6.862;2022-09-03T03:06:18;15.70;95.60
52867;DHT22;38739;53.324;6.862;2022-09-03T03:08:46;15.60;95.60
52867;DHT22;38739;53.324;6.862;2022-09-03T03:11:12;15.60;95.90
52867;DHT22;38739;53.324;6.862;2022-09-03T03:13:44;15.60;96.10
52867;DHT22;38739;53.324;6.862;2022-09-03T03:16:11;15.60;96.10
52867;DHT22;38739;53.324;6.862;2022-09-03T03:18:37;15.50;96.30
52867;DHT22;38739;53.324;6.862;2022-09-03T03:21:08;15.50;96.50
52867;DHT22;38739;53.324;6.862;2022-09-03T03:23:35;15.50;96.80
52867;DHT22;38739;53.324;6.862;2022-09-03T03:26:02;15.50;96.80
52867;DHT22;38739;53.324;6.862;2022-09-03T03:28:29;15.50;97.00
52867;DHT22;38739;53.324;6.862;2022-09-03T03:31:05;15.50;97.10
52867;DHT22;38739;53.324;6.862;2022-09-03T03:33:32;15.50;97.40
52867;DHT22;38739;53.324;6.862;2022-09-03T03:36:02;15.40;97.60
52867;DHT22;38739;53.324;6.862;2022-09-03T03:38:27;15.40;97.80
52867;DHT22;38739;53.324;6.862;2022-09-03T03:40:53;15.40;98.00
52867;DHT22;38739;53.324;6.862;2022-09-03T03:43:19;15.40;98.10
52867;DHT22;38739;53.324;6.862;2022-09-03T03:45:56;15.40;98.30
52867;DHT22;38739;53.324;6.862;2022-09-03T03:48:22;15.40;98.50
52867;DHT22;38739;53.324;6.862;2022-09-03T03:50:47;15.40;98.50
52867;DHT22;38739;53.324;6.862;2022-09-03T03:53:13;15.40;98.70
52867;DHT22;38739;53.324;6.862;2022-09-03T03:55:39;15.40;98.90
52867;DHT22;38739;53.324;6.862;2022-09-03T03:58:04;15.40;99.10
52867;DHT22;38739;53.324;6.862;2022-09-03T04:00:30;15.40;99.30
52867;DHT22;38739;53.324;6.862;2022-09-03T04:03:02;15.40;99.60
52867;DHT22;38739;53.324;6.862;2022-09-03T04:05:28;15.40;99.60
52867;DHT22;38739;53.324;6.862;2022-09-03T04:07:54;15.40;99.80
52867;DHT22;38739;53.324;6.862;2022-09-03T04:10:20;15.40;99.90
52867;DHT22;38739;53.324;6.862;2022-09-03T04:12:45;15.30;99.90
52867;DHT22;38739;53.324;6.862;2022-09-03T04:15:11;15.40;99.90
52867;DHT22;38739;53.324;6.862;2022-09-03T04:17:37;15.30;99.90
52867;DHT22;38739;53.324;6.862;2022-09-03T04:20:04;15.30;99.90
52867;DHT22;38739;53.324;6.862;2022-09-03T04:22:30;15.30;99.90
52867;DHT22;38739;53.324;6.862;2022-09-03T04:24:56;15.30;99.90
52867;DHT22;38739;53.324;6.862;2022-09-03T04:27:21;15.20;99.90
52867;DHT22;38739;53.324;6.862;2022-09-03T04:29:47;15.20;99.90
52867;DHT22;38739;53.324;6.862;2022-09-03T04:32:13;15.20;99.90
52867;DHT22;38739;53.324;6.862;2022-09-03T04:34:57;15.20;99.90
52867;DHT22;38739;53.324;6.862;2022-09-03T04:37:23;15.20;99.90
52867;DHT22;38739;53.324;6.862;2022-09-03T04:39:48;15.10;99.90
52867;DHT22;38739;53.324;6.862;2022-09-03T04:42:14;15.10;99.90
52867;DHT22;38739;53.324;6.862;2022-09-03T04:44:39;15.10;99.90
52867;DHT22;38739;53.324;6.862;2022-09-03T04:47:06;15.20;99.90
52867;DHT22;38739;53.324;6.862;2022-09-03T04:49:31;15.10;99.90
52867;DHT22;38739;53.324;6.862;2022-09-03T04:52:03;15.10;99.90
52867;DHT22;38739;53.324;6.862;2022-09-03T04:54:33;15.10;99.90
52867;DHT22;38739;53.324;6.862;2022-09-03T04:57:02;15.10;99.90
52867;DHT22;38739;53.324;6.862;2022-09-03T04:59:35;15.10;99.90
52867;DHT22;38739;53.324;6.862;2022-09-03T05:02:01;15.10;99.90
52867;DHT22;38739;53.324;6.862;2022-09-03T05:04:30;15.10;99.90
52867;DHT22;38739;53.324;6.862;2022-09-03T05:06:56;15.10;99.90
52867;DHT22;38739;53.324;6.862;2022-09-03T05:09:23;15.10;99.90
52867;DHT22;38739;53.324;6.862;2022-09-03T05:11:48;15.00;99.90
52867;DHT22;38739;53.324;6.862;2022-09-03T05:14:14;15.00;99.90
52867;DHT22;38739;53.324;6.862;2022-09-03T05:16:40;15.00;99.90
52867;DHT22;38739;53.324;6.862;2022-09-03T05:19:05;15.00;99.90
52867;DHT22;38739;53.324;6.862;2022-09-03T05:21:33;15.00;99.90
52867;DHT22;38739;53.324;6.862;2022-09-03T05:24:01;15.00;99.90
52867;DHT22;38739;53.324;6.862;2022-09-03T05:26:29;15.00;99.90
52867;DHT22;38739;53.324;6.862;2022-09-03T05:28:58;15.00;99.90
52867;DHT22;38739;53.324;6.862;2022-09-03T05:31:26;15.00;99.90
52867;DHT22;38739;53.324;6.862;2022-09-03T05:33:54;14.90;99.90
52867;DHT22;38739;53.324;6.862;2022-09-03T05:36:24;14.90;99.90
52867;DHT22;38739;53.324;6.862;2022-09-03T05:38:50;15.00;99.90
52867;DHT22;38739;53.324;6.862;2022-09-03T05:41:19;15.00;99.90
52867;DHT22;38739;53.324;6.862;2022-09-03T05:43:50;14.90;99.90
52867;DHT22;38739;53.324;6.862;2022-09-03T05:46:20;15.00;99.90
52867;DHT22;38739;53.324;6.862;2022-09-03T05:48:46;15.00;99.90
52867;DHT22;38739;53.324;6.862;2022-09-03T05:51:14;14.90;99.90
52867;DHT22;38739;53.324;6.862;2022-09-03T05:53:44;15.00;99.90
52867;DHT22;38739;53.324;6.862;2022-09-03T05:56:12;15.00;99.90
52867;DHT22;38739;53.324;6.862;2022-09-03T05:58:43;15.00;99.90
52867;DHT22;38739;53.324;6.862;2022-09-03T06:01:27;15.00;99.90
52867;DHT22;38739;53.324;6.862;2022-09-03T06:03:55;15.10;99.90
52867;DHT22;38739;53.324;6.862;2022-09-03T06:06:22;15.10;99.90
52867;DHT22;38739;53.324;6.862;2022-09-03T06:08:56;15.10;99.90
52867;DHT22;38739;53.324;6.862;2022-09-03T06:11:23;15.10;99.90
52867;DHT22;38739;53.324;6.862;2022-09-03T06:13:56;15.20;99.90
52867;DHT22;38739;53.324;6.862;2022-09-03T06:16:23;15.20;99.90
52867;DHT22;38739;53.324;6.862;2022-09-03T06:18:49;15.20;99.90
52867;DHT22;38739;53.324;6.862;2022-09-03T06:21:15;15.30;99.90
52867;DHT22;38739;53.324;6.862;2022-09-03T06:23:41;15.40;99.90
52867;DHT22;38739;53.324;6.862;2022-09-03T06:26:12;15.40;99.90
52867;DHT22;38739;53.324;6.862;2022-09-03T06:28:40;15.50;99.90
52867;DHT22;38739;53.324;6.862;2022-09-03T06:31:09;15.50;99.90
52867;DHT22;38739;53.324;6.862;2022-09-03T06:33:37;15.60;99.90
52867;DHT22;38739;53.324;6.862;2022-09-03T06:36:11;15.60;99.90
52867;DHT22;38739;53.324;6.862;2022-09-03T06:38:41;15.70;99.90
52867;DHT22;38739;53.324;6.862;2022-09-03T06:41:10;15.80;99.90
52867;DHT22;38739;53.324;6.862;2022-09-03T06:43:40;15.90;99.90
52867;DHT22;38739;53.324;6.862;2022-09-03T06:46:14;16.00;99.90
52867;DHT22;38739;53.324;6.862;2022-09-03T06:48:41;16.10;99.90
52867;DHT22;38739;53.324;6.862;2022-09-03T06:51:12;16.20;99.90
52867;DHT22;38739;53.324;6.862;2022-09-03T06:53:40;16.30;99.90
52867;DHT22;38739;53.324;6.862;2022-09-03T06:56:08;16.40;99.90
52867;DHT22;38739;53.324;6.862;2022-09-03T06:58:42;16.50;99.90
52867;DHT22;38739;53.324;6.862;2022-09-03T07:01:17;16.60;99.90
52867;DHT22;38739;53.324;6.862;2022-09-03T07:03:44;16.70;99.90
52867;DHT22;38739;53.324;6.862;2022-09-03T07:06:18;16.80;99.90
52867;DHT22;38739;53.324;6.862;2022-09-03T07:08:45;16.90;99.90
52867;DHT22;38739;53.324;6.862;2022-09-03T07:11:16;17.00;99.90
52867;DHT22;38739;53.324;6.862;2022-09-03T07:13:45;17.00;99.90
52867;DHT22;38739;53.324;6.862;2022-09-03T07:16:20;17.10;99.70
52867;DHT22;38739;53.324;6.862;2022-09-03T07:18:47;17.20;99.50
52867;DHT22;38739;53.324;6.862;2022-09-03T07:21:24;17.30;99.20
52867;DHT22;38739;53.324;6.862;2022-09-03T07:23:52;17.50;98.70
52867;DHT22;38739;53.324;6.862;2022-09-03T07:26:23;17.50;98.60
52867;DHT22;38739;53.324;6.862;2022-09-03T07:28:49;17.60;98.50
52867;DHT22;38739;53.324;6.862;2022-09-03T07:31:18;17.60;98.60
52867;DHT22;38739;53.324;6.862;2022-09-03T07:33:45;17.70;98.80
52867;DHT22;38739;53.324;6.862;2022-09-03T07:36:13;17.90;98.60
52867;DHT22;38739;53.324;6.862;2022-09-03T07:38:41;18.00;98.30
52867;DHT22;38739;53.324;6.862;2022-09-03T07:41:08;18.10;98.20
52867;DHT22;38739;53.324;6.862;2022-09-03T07:43:42;18.30;98.10
52867;DHT22;38739;53.324;6.862;2022-09-03T07:46:09;18.40;97.70
52867;DHT22;38739;53.324;6.862;2022-09-03T07:48:38;18.60;97.80
52867;DHT22;38739;53.324;6.862;2022-09-03T07:51:06;18.80;97.80
52867;DHT22;38739;53.324;6.862;2022-09-03T07:53:33;18.90;97.00
52867;DHT22;38739;53.324;6.862;2022-09-03T07:56:07;19.00;97.20
52867;DHT22;38739;53.324;6.862;2022-09-03T07:58:33;19.20;96.70
52867;DHT22;38739;53.324;6.862;2022-09-03T08:01:05;19.20;95.90
52867;DHT22;38739;53.324;6.862;2022-09-03T08:03:35;19.20;95.20
52867;DHT22;38739;53.324;6.862;2022-09-03T08:06:03;19.20;95.50
52867;DHT22;38739;53.324;6.862;2022-09-03T08:08:30;19.40;95.60
52867;DHT22;38739;53.324;6.862;2022-09-03T08:11:16;19.50;95.20
52867;DHT22;38739;53.324;6.862;2022-09-03T08:13:52;19.60;94.80
52867;DHT22;38739;53.324;6.862;2022-09-03T08:16:19;19.60;94.30
52867;DHT22;38739;53.324;6.862;2022-09-03T08:18:45;19.70;94.00
52867;DHT22;38739;53.324;6.862;2022-09-03T08:21:17;19.70;93.80
52867;DHT22;38739;53.324;6.862;2022-09-03T08:23:48;19.70;93.50
52867;DHT22;38739;53.324;6.862;2022-09-03T08:26:16;19.80;93.70
52867;DHT22;38739;53.324;6.862;2022-09-03T08:28:42;20.00;93.90
52867;DHT22;38739;53.324;6.862;2022-09-03T08:31:10;20.10;93.40
52867;DHT22;38739;53.324;6.862;2022-09-03T08:33:37;20.10;93.10
52867;DHT22;38739;53.324;6.862;2022-09-03T08:36:09;20.20;93.00
52867;DHT22;38739;53.324;6.862;2022-09-03T08:38:38;20.40;92.80
52867;DHT22;38739;53.324;6.862;2022-09-03T08:41:07;20.50;93.00
52867;DHT22;38739;53.324;6.862;2022-09-03T08:43:54;20.80;92.40
52867;DHT22;38739;53.324;6.862;2022-09-03T08:46:31;20.80;92.00
52867;DHT22;38739;53.324;6.862;2022-09-03T08:48:58;21.00;91.70
52867;DHT22;38739;53.324;6.862;2022-09-03T08:51:25;21.20;92.30
52867;DHT22;38739;53.324;6.862;2022-09-03T08:53:56;21.50;91.90
52867;DHT22;38739;53.324;6.862;2022-09-03T08:56:26;21.70;91.50
52867;DHT22;38739;53.324;6.862;2022-09-03T08:58:54;21.90;91.00
52867;DHT22;38739;53.324;6.862;2022-09-03T09:01:35;22.10;90.50
52867;DHT22;38739;53.324;6.862;2022-09-03T09:04:17;22.10;90.30
52867;DHT22;38739;53.324;6.862;2022-09-03T09:07:11;22.30;90.40
52867;DHT22;38739;53.324;6.862;2022-09-03T09:17:57;22.60;88.70
52867;DHT22;38739;53.324;6.862;2022-09-03T09:23:12;23.00;87.70
52867;DHT22;38739;53.324;6.862;2022-09-03T09:25:47;23.30;88.20
52867;DHT22;38739;53.324;6.862;2022-09-03T09:28:18;23.60;87.60
52867;DHT22;38739;53.324;6.862;2022-09-03T09:30:49;23.70;85.30
52867;DHT22;38739;53.324;6.862;2022-09-03T09:33:17;23.60;84.60
52867;DHT22;38739;53.324;6.862;2022-09-03T09:35:44;23.80;85.30
52867;DHT22;38739;53.324;6.862;2022-09-03T09:38:11;23.80;83.80
52867;DHT22;38739;53.324;6.862;2022-09-03T09:40:42;24.00;84.60
52867;DHT22;38739;53.324;6.862;2022-09-03T09:43:13;24.10;83.00
52867;DHT22;38739;53.324;6.862;2022-09-03T09:45:49;24.30;83.30
52867;DHT22;38739;53.324;6.862;2022-09-03T09:48:24;24.40;80.80
52867;DHT22;38739;53.324;6.862;2022-09-03T09:53:36;24.50;80.50
52867;DHT22;38739;53.324;6.862;2022-09-03T09:56:04;24.60;80.40
52867;DHT22;38739;53.324;6.862;2022-09-03T09:58:31;24.80;80.10
52867;DHT22;38739;53.324;6.862;2022-09-03T10:01:19;25.10;80.00
52867;DHT22;38739;53.324;6.862;2022-09-03T10:03:54;25.00;77.80
52867;DHT22;38739;53.324;6.862;2022-09-03T10:06:29;25.20;78.00
52867;DHT22;38739;53.324;6.862;2022-09-03T10:09:16;25.70;79.50
52867;DHT22;38739;53.324;6.862;2022-09-03T10:11:49;25.80;78.10
52867;DHT22;38739;53.324;6.862;2022-09-03T10:14:20;26.00;76.70
52867;DHT22;38739;53.324;6.862;2022-09-03T10:16:49;26.20;75.50
52867;DHT22;38739;53.324;6.862;2022-09-03T10:19:19;26.40;74.70
52867;DHT22;38739;53.324;6.862;2022-09-03T10:21:53;26.30;74.00
52867;DHT22;38739;53.324;6.862;2022-09-03T10:27:15;27.00;75.80
52867;DHT22;38739;53.324;6.862;2022-09-03T10:29:43;27.20;72.30
52867;DHT22;38739;53.324;6.862;2022-09-03T10:32:31;27.10;70.40
52867;DHT22;38739;53.324;6.862;2022-09-03T10:35:17;27.00;70.50
52867;DHT22;38739;53.324;6.862;2022-09-03T10:46:27;27.20;67.40
52867;DHT22;38739;53.324;6.862;2022-09-03T10:54:48;27.30;67.00
52867;DHT22;38739;53.324;6.862;2022-09-03T10:57:41;27.50;65.90
52867;DHT22;38739;53.324;6.862;2022-09-03T11:00:13;27.80;67.30
52867;DHT22;38739;53.324;6.862;2022-09-03T11:05:39;28.50;64.60
52867;DHT22;38739;53.324;6.862;2022-09-03T11:10:40;28.80;63.50
52867;DHT22;38739;53.324;6.862;2022-09-03T11:13:16;28.80;61.90
52867;DHT22;38739;53.324;6.862;2022-09-03T11:15:59;29.10;63.10
52867;DHT22;38739;53.324;6.862;2022-09-03T11:18:38;29.40;65.60
52867;DHT22;38739;53.324;6.862;2022-09-03T11:21:08;29.80;63.90
52867;DHT22;38739;53.324;6.862;2022-09-03T11:23:40;30.20;61.90
52867;DHT22;38739;53.324;6.862;2022-09-03T11:26:10;30.00;58.30
52867;DHT22;38739;53.324;6.862;2022-09-03T11:28:57;30.00;59.00
52867;DHT22;38739;53.324;6.862;2022-09-03T11:31:37;30.10;57.70
52867;DHT22;38739;53.324;6.862;2022-09-03T11:34:10;30.40;59.20
52867;DHT22;38739;53.324;6.862;2022-09-03T11:36:38;30.60;57.90
52867;DHT22;38739;53.324;6.862;2022-09-03T11:41:42;30.50;57.00
52867;DHT22;38739;53.324;6.862;2022-09-03T11:44:18;30.60;56.70
52867;DHT22;38739;53.324;6.862;2022-09-03T11:46:56;30.70;56.10
52867;DHT22;38739;53.324;6.862;2022-09-03T11:49:31;31.10;56.10
52867;DHT22;38739;53.324;6.862;2022-09-03T11:52:03;31.10;55.50
52867;DHT22;38739;53.324;6.862;2022-09-03T11:54:44;31.40;55.60
52867;DHT22;38739;53.324;6.862;2022-09-03T11:57:29;31.70;57.40
52867;DHT22;38739;53.324;6.862;2022-09-03T12:00:12;31.60;54.10
52867;DHT22;38739;53.324;6.862;2022-09-03T12:02:51;31.40;55.10
52867;DHT22;38739;53.324;6.862;2022-09-03T12:08:50;31.90;54.40
52867;DHT22;38739;53.324;6.862;2022-09-03T12:14:22;32.70;52.50
52867;DHT22;38739;53.324;6.862;2022-09-03T12:19:53;32.60;53.80
52867;DHT22;38739;53.324;6.862;2022-09-03T12:22:22;32.70;54.90
52867;DHT22;38739;53.324;6.862;2022-09-03T12:24:48;33.30;53.90
52867;DHT22;38739;53.324;6.862;2022-09-03T12:27:26;33.60;53.10
52867;DHT22;38739;53.324;6.862;2022-09-03T12:30:03;33.90;53.70
52867;DHT22;38739;53.324;6.862;2022-09-03T12:32:34;33.70;50.00
52867;DHT22;38739;53.324;6.862;2022-09-03T12:35:16;33.30;50.20
52867;DHT22;38739;53.324;6.862;2022-09-03T12:37:43;33.40;52.40
52867;DHT22;38739;53.324;6.862;2022-09-03T12:40:22;33.50;52.40
52867;DHT22;38739;53.324;6.862;2022-09-03T12:42:48;33.90;52.50
52867;DHT22;38739;53.324;6.862;2022-09-03T12:45:23;33.80;51.40
52867;DHT22;38739;53.324;6.862;2022-09-03T12:47:50;34.00;53.30
52867;DHT22;38739;53.324;6.862;2022-09-03T12:50:18;34.30;51.80
52867;DHT22;38739;53.324;6.862;2022-09-03T12:52:54;34.10;51.00
52867;DHT22;38739;53.324;6.862;2022-09-03T12:55:35;34.20;51.50
52867;DHT22;38739;53.324;6.862;2022-09-03T12:58:05;34.10;50.20
52867;DHT22;38739;53.324;6.862;2022-09-03T13:00:33;34.10;51.40
52867;DHT22;38739;53.324;6.862;2022-09-03T13:03:20;34.20;51.60
52867;DHT22;38739;53.324;6.862;2022-09-03T13:05:55;34.40;50.90
52867;DHT22;38739;53.324;6.862;2022-09-03T13:08:28;34.50;50.10
52867;DHT22;38739;53.324;6.862;2022-09-03T13:10:58;34.40;49.40
52867;DHT22;38739;53.324;6.862;2022-09-03T13:13:29;34.50;49.20
52867;DHT22;38739;53.324;6.862;2022-09-03T13:21:20;34.00;49.40
52867;DHT22;38739;53.324;6.862;2022-09-03T13:24:16;33.90;50.60
52867;DHT22;38739;53.324;6.862;2022-09-03T13:27:03;34.10;48.90
52867;DHT22;38739;53.324;6.862;2022-09-03T13:35:12;34.10;50.20
52867;DHT22;38739;53.324;6.862;2022-09-03T13:37:56;34.30;50.60
52867;DHT22;38739;53.324;6.862;2022-09-03T13:43:17;34.30;48.60
52867;DHT22;38739;53.324;6.862;2022-09-03T13:45:52;34.30;49.70
52867;DHT22;38739;53.324;6.862;2022-09-03T13:48:27;34.30;49.20
52867;DHT22;38739;53.324;6.862;2022-09-03T13:51:23;34.30;50.70
52867;DHT22;38739;53.324;6.862;2022-09-03T13:53:54;34.40;49.50
52867;DHT22;38739;53.324;6.862;2022-09-03T13:57:21;34.40;50.80
52867;DHT22;38739;53.324;6.862;2022-09-03T13:59:47;34.40;50.70
52867;DHT22;38739;53.324;6.862;2022-09-03T14:07:36;34.10;48.90
52867;DHT22;38739;53.324;6.862;2022-09-03T14:10:18;34.20;49.70
52867;DHT22;38739;53.324;6.862;2022-09-03T14:13:15;34.10;48.70
52867;DHT22;38739;53.324;6.862;2022-09-03T14:15:50;33.80;49.20
52867;DHT22;38739;53.324;6.862;2022-09-03T14:21:06;33.70;49.40
52867;DHT22;38739;53.324;6.862;2022-09-03T14:26:06;33.70;50.30
52867;DHT22;38739;53.324;6.862;2022-09-03T14:28:45;33.60;49.70
52867;DHT22;38739;53.324;6.862;2022-09-03T14:36:44;33.70;49.20
52867;DHT22;38739;53.324;6.862;2022-09-03T14:50:21;33.80;50.30
52867;DHT22;38739;53.324;6.862;2022-09-03T14:53:01;33.60;49.60
52867;DHT22;38739;53.324;6.862;2022-09-03T15:01:34;33.50;51.50
52867;DHT22;38739;53.324;6.862;2022-09-03T15:09:57;33.00;50.60
52867;DHT22;38739;53.324;6.862;2022-09-03T15:13:48;32.90;49.70
52867;DHT22;38739;53.324;6.862;2022-09-03T15:24:56;32.30;51.70
52867;DHT22;38739;53.324;6.862;2022-09-03T15:27:39;32.00;50.70
52867;DHT22;38739;53.324;6.862;2022-09-03T15:30:17;31.90;52.10
52867;DHT22;38739;53.324;6.862;2022-09-03T15:38:04;31.80;52.10
52867;DHT22;38739;53.324;6.862;2022-09-03T15:40:41;31.80;52.70
52867;DHT22;38739;53.324;6.862;2022-09-03T15:43:29;31.80;53.50
52867;DHT22;38739;53.324;6.862;2022-09-03T15:48:29;31.60;52.60
52867;DHT22;38739;53.324;6.862;2022-09-03T15:53:55;31.40;52.80
52867;DHT22;38739;53.324;6.862;2022-09-03T16:01:33;30.60;53.80
52867;DHT22;38739;53.324;6.862;2022-09-03T16:07:20;30.10;55.60
52867;DHT22;38739;53.324;6.862;2022-09-03T16:10:13;29.90;55.30
52867;DHT22;38739;53.324;6.862;2022-09-03T16:13:00;29.80;55.20
52867;DHT22;38739;53.324;6.862;2022-09-03T16:15:37;29.60;57.60
52867;DHT22;38739;53.324;6.862;2022-09-03T16:20:42;29.30;56.00
52867;DHT22;38739;53.324;6.862;2022-09-03T16:23:22;29.00;56.20
52867;DHT22;38739;53.324;6.862;2022-09-03T16:29:10;28.50;57.50
52867;DHT22;38739;53.324;6.862;2022-09-03T16:37:21;27.60;59.10
52867;DHT22;38739;53.324;6.862;2022-09-03T16:42:32;27.10;60.70
52867;DHT22;38739;53.324;6.862;2022-09-03T16:45:19;26.90;61.90
52867;DHT22;38739;53.324;6.862;2022-09-03T16:51:09;26.60;61.60
52867;DHT22;38739;53.324;6.862;2022-09-03T16:59:20;26.00;63.10
52867;DHT22;38739;53.324;6.862;2022-09-03T17:04:45;25.70;62.30
52867;DHT22;38739;53.324;6.862;2022-09-03T17:10:18;25.40;63.30
52867;DHT22;38739;53.324;6.862;2022-09-03T17:21:22;24.90;65.60
52867;DHT22;38739;53.324;6.862;2022-09-03T17:37:41;24.30;65.90
52867;DHT22;38739;53.324;6.862;2022-09-03T17:40:36;24.20;67.60
52867;DHT22;38739;53.324;6.862;2022-09-03T17:48:39;23.90;68.10
52867;DHT22;38739;53.324;6.862;2022-09-03T17:59:36;23.50;70.00
52867;DHT22;38739;53.324;6.862;2022-09-03T18:12:52;22.90;71.10
52867;DHT22;38739;53.324;6.862;2022-09-03T18:15:53;22.80;71.70
52867;DHT22;38739;53.324;6.862;2022-09-03T18:18:30;22.70;72.30
52867;DHT22;38739;53.324;6.862;2022-09-03T18:20:59;22.60;71.90
52867;DHT22;38739;53.324;6.862;2022-09-03T18:26:59;22.40;71.90
52867;DHT22;38739;53.324;6.862;2022-09-03T18:29:49;22.40;72.60
52867;DHT22;38739;53.324;6.862;2022-09-03T18:32:37;22.20;71.00
52867;DHT22;38739;53.324;6.862;2022-09-03T18:35:24;22.10;71.20
52867;DHT22;38739;53.324;6.862;2022-09-03T18:38:12;22.00;71.80
52867;DHT22;38739;53.324;6.862;2022-09-03T18:41:22;22.00;70.90
52867;DHT22;38739;53.324;6.862;2022-09-03T18:47:55;21.90;70.20
52867;DHT22;38739;53.324;6.862;2022-09-03T18:51:24;21.80;70.70
52867;DHT22;38739;53.324;6.862;2022-09-03T18:54:43;21.70;69.60
52867;DHT22;38739;53.324;6.862;2022-09-03T18:57:34;21.70;71.80
52867;DHT22;38739;53.324;6.862;2022-09-03T19:00:22;21.60;70.30
52867;DHT22;38739;53.324;6.862;2022-09-03T19:12:35;21.50;71.20
52867;DHT22;38739;53.324;6.862;2022-09-03T19:15:43;21.40;71.40
52867;DHT22;38739;53.324;6.862;2022-09-03T19:21:58;21.40;71.70
52867;DHT22;38739;53.324;6.862;2022-09-03T19:24:48;21.30;71.60
52867;DHT22;38739;53.324;6.862;2022-09-03T19:30:37;21.20;71.60
52867;DHT22;38739;53.324;6.862;2022-09-03T19:33:33;21.20;71.70
52867;DHT22;38739;53.324;6.862;2022-09-03T19:39:55;21.10;72.50
52867;DHT22;38739;53.324;6.862;2022-09-03T19:49:00;20.90;72.80
52867;DHT22;38739;53.324;6.862;2022-09-03T19:54:55;20.80;72.50
52867;DHT22;38739;53.324;6.862;2022-09-03T19:57:43;20.80;73.20
52867;DHT22;38739;53.324;6.862;2022-09-03T20:00:28;20.70;72.60
52867;DHT22;38739;53.324;6.862;2022-09-03T20:03:14;20.70;73.40
52867;DHT22;38739;53.324;6.862;2022-09-03T20:06:01;20.60;73.50
52867;DHT22;38739;53.324;6.862;2022-09-03T20:08:47;20.60;73.70
52867;DHT22;38739;53.324;6.862;2022-09-03T20:11:32;20.50;74.80
52867;DHT22;38739;53.324;6.862;2022-09-03T20:13:58;20.40;73.80
52867;DHT22;38739;53.324;6.862;2022-09-03T20:30:19;20.10;74.70
52867;DHT22;38739;53.324;6.862;2022-09-03T20:36:20;20.10;74.50
52867;DHT22;38739;53.324;6.862;2022-09-03T20:47:42;20.00;73.80
52867;DHT22;38739;53.324;6.862;2022-09-03T20:55:43;19.90;74.00
52867;DHT22;38739;53.324;6.862;2022-09-03T21:01:06;19.80;74.60
52867;DHT22;38739;53.324;6.862;2022-09-03T21:06:25;19.70;74.20
52867;DHT22;38739;53.324;6.862;2022-09-03T21:14:38;19.60;73.70
52867;DHT22;38739;53.324;6.862;2022-09-03T21:17:29;19.60;74.10
52867;DHT22;38739;53.324;6.862;2022-09-03T21:20:31;19.50;73.80
52867;DHT22;38739;53.324;6.862;2022-09-03T21:23:24;19.50;75.00
52867;DHT22;38739;53.324;6.862;2022-09-03T21:26:10;19.50;73.80
52867;DHT22;38739;53.324;6.862;2022-09-03T21:28:41;19.50;74.40
52867;DHT22;38739;53.324;6.862;2022-09-03T21:31:18;19.40;73.80
52867;DHT22;38739;53.324;6.862;2022-09-03T21:33:47;19.40;73.90
52867;DHT22;38739;53.324;6.862;2022-09-03T21:36:24;19.40;74.50
52867;DHT22;38739;53.324;6.862;2022-09-03T21:41:54;19.40;73.90
52867;DHT22;38739;53.324;6.862;2022-09-03T21:47:23;19.40;74.10
52867;DHT22;38739;53.324;6.862;2022-09-03T21:52:58;19.30;73.80
52867;DHT22;38739;53.324;6.862;2022-09-03T22:00:52;19.20;73.80
52867;DHT22;38739;53.324;6.862;2022-09-03T22:03:19;19.10;73.80